Time;durP1;ratioP1;P1;durP2;ratioP2;P2;SDS_P1;SDS_P2;PMS_P1;PMS_P2;Temp;Humidity;BMP_temperature;BMP_pressure;BME280_temperature;BME280_humidity;BME280_pressure;Samples;Min_cycle;Max_cycle;Signal;HPM_P1;HPM_P2
2024/04/15 00:00:47;;;;;;;4.78;3.42;;;410.00;2355.20;;;;;;5520454;25;19990;-71
2024/04/15 00:03:13;;;;;;;3.72;2.78;;;410.10;2355.20;;;;;;5520122;26;20746;-76
2024/04/15 00:05:40;;;;;;;9.18;4.10;;;410.10;2355.20;;;;;;5517964;26;19998;-77
2024/04/15 00:08:06;;;;;;;4.88;2.97;;;410.10;2355.20;;;;;;5520054;26;19997;-71
2024/04/15 00:10:37;;;;;;;5.40;2.75;;;410.10;2355.20;;;;;;5521013;25;19993;-71
2024/04/15 00:13:03;;;;;;;7.28;3.75;;;410.20;2355.20;;;;;;5519662;25;20005;-71
2024/04/15 00:15:29;;;;;;;7.97;3.42;;;410.10;2355.20;;;;;;5520265;25;19993;-76
2024/04/15 00:17:55;;;;;;;7.40;3.10;;;410.00;2355.20;;;;;;5519021;26;20308;-77
2024/04/15 00:20:20;;;;;;;6.55;3.58;;;410.10;2355.20;;;;;;5520933;25;19994;-72
2024/04/15 00:22:46;;;;;;;7.18;3.53;;;410.00;2355.20;;;;;;5519766;26;20400;-72
2024/04/15 00:25:12;;;;;;;5.63;3.88;;;409.90;2355.20;;;;;;5520237;26;20439;-71
2024/04/15 00:27:38;;;;;;;5.40;3.63;;;409.90;2355.20;;;;;;5519394;26;19994;-71
2024/04/15 00:30:05;;;;;;;5.38;3.50;;;409.60;2355.20;;;;;;5520204;26;19993;-78
2024/04/15 00:32:31;;;;;;;5.93;3.85;;;384.90;2329.60;;;;;;5520358;25;20515;-72
2024/04/15 00:34:57;;;;;;;9.02;3.83;;;384.90;2329.60;;;;;;5519507;25;19997;-71
2024/04/15 00:37:23;;;;;;;5.40;3.72;;;384.80;2329.60;;;;;;5520693;26;20919;-80
2024/04/15 00:39:49;;;;;;;5.82;3.50;;;384.80;2329.60;;;;;;5519605;25;20449;-72
2024/04/15 00:42:14;;;;;;;6.80;3.47;;;384.90;2329.60;;;;;;5520479;25;19997;-77
2024/04/15 00:44:40;;;;;;;5.25;3.80;;;409.60;2355.20;;;;;;5519267;26;20003;-72
2024/04/15 00:47:08;;;;;;;4.78;2.97;;;409.60;2355.20;;;;;;5519774;26;20008;-76
2024/04/15 00:49:34;;;;;;;6.22;3.42;;;409.80;2355.20;;;;;;5518448;26;19993;-72
2024/04/15 00:52:01;;;;;;;6.53;3.17;;;409.90;2355.20;;;;;;5520366;26;20454;-72
2024/04/15 00:54:30;;;;;;;9.52;3.65;;;409.80;2355.20;;;;;;5493717;25;20001;-72
2024/04/15 00:56:56;;;;;;;4.75;3.13;;;409.70;2355.20;;;;;;5519705;25;20069;-71
2024/04/15 00:59:24;;;;;;;6.55;3.50;;;409.70;2355.20;;;;;;5518845;25;20045;-71
2024/04/15 01:01:51;;;;;;;5.38;3.80;;;409.70;2355.20;;;;;;5520250;25;20515;-74
2024/04/15 01:04:17;;;;;;;6.47;3.28;;;409.60;2355.20;;;;;;5518560;25;20435;-71
2024/04/15 01:06:43;;;;;;;4.40;3.28;;;409.60;2355.20;;;;;;5520255;26;20008;-71
2024/04/15 01:09:09;;;;;;;7.68;3.85;;;409.60;2355.20;;;;;;5519056;25;19993;-71
2024/04/15 01:11:34;;;;;;;5.68;3.30;;;384.90;2329.60;;;;;;5520215;25;20451;-72
2024/04/15 01:14:01;;;;;;;4.68;3.58;;;409.60;2355.20;;;;;;5519060;25;20005;-72
2024/04/15 01:16:53;;;;;;;9.50;3.63;;;409.60;2355.20;;;;;;5519023;26;20073;-72
2024/04/15 01:19:19;;;;;;;12.57;4.53;;;409.60;2355.20;;;;;;5512704;25;20042;-71
2024/04/15 01:21:45;;;;;;;4.82;3.38;;;409.60;2355.20;;;;;;5519361;25;20451;-72
2024/04/15 01:24:11;;;;;;;4.68;3.08;;;409.70;2355.20;;;;;;5518948;25;20060;-72
2024/04/15 01:26:37;;;;;;;4.00;2.95;;;409.80;2355.20;;;;;;5519798;25;20005;-78
2024/04/15 01:29:03;;;;;;;8.30;3.50;;;409.70;2355.20;;;;;;5519271;26;19998;-78
2024/04/15 01:31:29;;;;;;;13.38;3.85;;;384.90;2329.60;;;;;;5519839;26;20005;-77
2024/04/15 01:33:55;;;;;;;5.47;3.67;;;384.90;2329.60;;;;;;5518442;26;20070;-71
2024/04/15 01:36:20;;;;;;;11.20;4.18;;;384.80;2329.60;;;;;;5520095;25;19998;-71
2024/04/15 01:38:46;;;;;;;5.53;3.20;;;384.90;2329.60;;;;;;5518197;26;20069;-78
2024/04/15 01:41:12;;;;;;;4.20;3.30;;;384.70;2329.60;;;;;;5519910;25;19989;-71
2024/04/15 01:43:38;;;;;;;5.07;3.70;;;384.80;2329.60;;;;;;5518199;25;20451;-76
2024/04/15 01:46:03;;;;;;;6.72;3.42;;;384.80;2329.60;;;;;;5518535;26;19993;-72
2024/04/15 01:48:29;;;;;;;5.22;3.28;;;384.70;2329.60;;;;;;5518641;25;20368;-74
2024/04/15 01:50:55;;;;;;;7.72;3.85;;;384.70;2329.60;;;;;;5518857;25;20047;-74
2024/04/15 01:53:21;;;;;;;5.05;3.20;;;384.70;2329.60;;;;;;5516420;25;20029;-72
2024/04/15 01:55:47;;;;;;;4.13;3.22;;;384.70;2329.60;;;;;;5519487;26;20304;-74
2024/04/15 01:58:12;;;;;;;6.05;3.45;;;384.70;2329.60;;;;;;5519136;26;19998;-72
2024/04/15 02:00:38;;;;;;;8.23;3.83;;;384.80;2329.60;;;;;;5518975;25;19993;-70
2024/04/15 02:03:04;;;;;;;5.32;3.97;;;384.80;2329.60;;;;;;5518255;25;20350;-72
2024/04/15 02:05:30;;;;;;;8.93;3.72;;;384.80;2329.60;;;;;;5518848;25;20447;-72
2024/04/15 02:07:57;;;;;;;9.00;4.03;;;384.80;2329.60;;;;;;5520284;26;20001;-77
2024/04/15 02:10:23;;;;;;;6.30;3.78;;;384.80;2329.60;;;;;;5522553;26;19993;-72
2024/04/15 02:12:49;;;;;;;8.52;4.03;;;384.90;2329.60;;;;;;5522010;26;20065;-71
2024/04/15 02:15:15;;;;;;;10.25;3.95;;;409.60;2355.20;;;;;;5522301;26;20037;-71
2024/04/15 02:17:41;;;;;;;6.32;3.92;;;409.60;2355.20;;;;;;5522081;26;20392;-73
2024/04/15 02:20:07;;;;;;;8.05;4.10;;;409.60;2355.20;;;;;;5522528;25;20005;-72
2024/04/15 02:22:33;;;;;;;5.82;3.35;;;409.60;2355.20;;;;;;5521230;26;20066;-71
2024/04/15 02:24:59;;;;;;;6.28;4.05;;;384.90;2329.60;;;;;;5522186;25;20466;-79
2024/04/15 02:27:25;;;;;;;5.70;4.22;;;409.60;2355.20;;;;;;5521036;26;19993;-74
2024/04/15 02:29:52;;;;;;;7.40;4.07;;;384.90;2329.60;;;;;;5523243;25;19997;-78
2024/04/15 02:32:19;;;;;;;8.18;4.18;;;384.90;2329.60;;;;;;5522908;25;20001;-76
2024/04/15 02:34:45;;;;;;;9.00;5.32;;;384.90;2329.60;;;;;;5495901;26;20344;-79
2024/04/15 02:37:11;;;;;;;10.85;4.78;;;384.80;2329.60;;;;;;5522495;25;20008;-76
2024/04/15 02:39:38;;;;;;;7.00;4.65;;;384.70;2329.60;;;;;;5522175;25;20001;-73
2024/04/15 02:42:05;;;;;;;6.20;4.05;;;384.70;2329.60;;;;;;5521702;26;20006;-72
2024/04/15 02:44:31;;;;;;;6.85;3.88;;;384.70;2329.60;;;;;;5521871;25;20502;-71
2024/04/15 02:46:57;;;;;;;6.40;4.20;;;384.80;2329.60;;;;;;5520707;25;20001;-75
2024/04/15 02:49:22;;;;;;;5.35;4.10;;;384.90;2329.60;;;;;;5521938;26;20461;-71
2024/04/15 02:51:48;;;;;;;8.52;4.45;;;384.90;2329.60;;;;;;5521599;25;20004;-72
2024/04/15 02:54:14;;;;;;;5.47;4.20;;;384.80;2329.60;;;;;;5521572;26;19993;-73
2024/04/15 02:56:41;;;;;;;7.70;4.00;;;384.90;2329.60;;;;;;5521584;26;20008;-71
2024/04/15 02:59:07;;;;;;;5.28;3.67;;;409.70;2355.20;;;;;;5522022;26;20005;-72
2024/04/15 03:01:33;;;;;;;6.47;4.35;;;409.70;2355.20;;;;;;5521199;25;20058;-72
2024/04/15 03:03:59;;;;;;;6.68;4.07;;;409.60;2355.20;;;;;;5521567;25;20009;-73
2024/04/15 03:06:24;;;;;;;5.53;3.90;;;384.90;2329.60;;;;;;5520911;26;20372;-72
2024/04/15 03:08:50;;;;;;;7.43;3.80;;;409.70;2355.20;;;;;;5521326;25;20066;-72
2024/04/15 03:11:16;;;;;;;7.25;4.45;;;409.90;2329.60;;;;;;5521475;25;20753;-75
2024/04/15 03:13:42;;;;;;;8.55;3.95;;;410.00;2329.60;;;;;;5521555;26;20012;-73
2024/04/15 03:16:08;;;;;;;6.95;3.90;;;410.00;2304.00;;;;;;5521480;25;19994;-71
2024/04/15 03:18:34;;;;;;;5.35;3.97;;;410.10;2278.40;;;;;;5519522;26;20383;-72
2024/04/15 03:21:07;;;;;;;6.60;3.97;;;410.20;2252.80;;;;;;5521854;26;20001;-72
2024/04/15 03:23:33;;;;;;;5.05;3.33;;;410.20;2252.80;;;;;;5520514;25;20013;-72
2024/04/15 03:25:59;;;;;;;6.50;3.97;;;410.30;2227.20;;;;;;5522278;26;20001;-71
2024/04/15 03:28:25;;;;;;;6.47;4.10;;;410.20;2278.40;;;;;;5520503;26;20005;-75
2024/04/15 03:30:51;;;;;;;7.22;4.60;;;410.10;2329.60;;;;;;5521927;25;20009;-71
2024/04/15 03:33:17;;;;;;;7.60;4.18;;;409.90;2329.60;;;;;;5520693;25;20839;-72
2024/04/15 03:35:43;;;;;;;8.73;5.20;;;409.90;2355.20;;;;;;5521646;26;19997;-72
2024/04/15 03:38:08;;;;;;;5.93;4.13;;;409.60;2355.20;;;;;;5520824;25;20187;-71
2024/04/15 03:40:34;;;;;;;6.32;4.63;;;384.90;2329.60;;;;;;5521525;25;20009;-72
2024/04/15 03:43:02;;;;;;;9.82;4.47;;;384.80;2329.60;;;;;;5524815;26;20025;-73
2024/04/15 03:45:28;;;;;;;5.60;4.07;;;384.80;2329.60;;;;;;5526655;25;20005;-80
2024/04/15 03:47:54;;;;;;;5.93;3.97;;;384.70;2329.60;;;;;;5526322;26;19993;-76
2024/04/15 03:50:23;;;;;;;10.68;3.90;;;384.70;2329.60;;;;;;5527813;26;20140;-74
2024/04/15 03:52:49;;;;;;;6.50;4.35;;;384.70;2329.60;;;;;;5526579;26;20431;-76
2024/04/15 03:55:15;;;;;;;6.85;4.30;;;384.60;2329.60;;;;;;5525344;26;20032;-79
2024/04/15 03:57:41;;;;;;;8.63;4.70;;;384.60;2329.60;;;;;;5521099;26;20002;-71
2024/04/15 04:00:08;;;;;;;6.30;4.65;;;384.70;2329.60;;;;;;5521188;26;20005;-72
2024/04/15 04:02:34;;;;;;;6.82;4.13;;;384.60;2329.60;;;;;;5520277;25;20458;-75
2024/04/15 04:04:59;;;;;;;6.63;4.78;;;384.60;2329.60;;;;;;5521593;26;19997;-76
2024/04/15 04:07:25;;;;;;;6.93;4.32;;;384.70;2329.60;;;;;;5520123;25;20005;-76
2024/04/15 04:09:51;;;;;;;13.57;4.85;;;384.60;2329.60;;;;;;5521683;25;20004;-77
2024/04/15 04:12:17;;;;;;;6.03;3.72;;;384.60;2329.60;;;;;;5520223;25;20069;-77
2024/04/15 04:14:43;;;;;;;6.43;4.32;;;384.70;2329.60;;;;;;5520970;26;20457;-78
2024/04/15 04:17:09;;;;;;;6.63;4.47;;;384.90;2329.60;;;;;;5520194;25;20085;-71
2024/04/15 04:19:35;;;;;;;6.40;4.57;;;409.60;2329.60;;;;;;5520334;26;20044;-71
2024/04/15 04:22:01;;;;;;;5.22;3.88;;;409.60;2329.60;;;;;;5520106;25;20008;-71
2024/04/15 04:24:29;;;;;;;9.50;4.25;;;409.90;2278.40;;;;;;5520505;25;20001;-71
2024/04/15 04:26:55;;;;;;;6.45;4.70;;;409.90;2278.40;;;;;;5519085;26;19994;-71
2024/04/15 04:29:21;;;;;;;6.55;4.38;;;410.00;2252.80;;;;;;5520008;25;20001;-71
2024/04/15 04:31:47;;;;;;;8.77;4.07;;;410.30;2252.80;;;;;;5519114;26;20316;-71
2024/04/15 04:34:13;;;;;;;5.90;4.32;;;435.60;2176.00;;;;;;5519242;26;19997;-71
2024/04/15 04:36:38;;;;;;;8.77;4.45;;;435.50;2176.00;;;;;;5520117;26;20033;-72
2024/04/15 04:39:04;;;;;;;9.00;4.20;;;435.40;2176.00;;;;;;5520695;25;20008;-71
2024/04/15 04:41:31;;;;;;;10.27;4.90;;;435.40;2150.40;;;;;;5519210;26;20012;-71
2024/04/15 04:43:57;;;;;;;7.18;4.50;;;435.30;2201.60;;;;;;5520238;26;19997;-71
2024/04/15 04:46:23;;;;;;;14.00;5.25;;;410.50;2252.80;;;;;;5519952;25;20277;-70
2024/04/15 04:48:49;;;;;;;8.60;4.72;;;410.50;2252.80;;;;;;5520586;26;20012;-71
2024/04/15 04:51:15;;;;;;;9.52;5.35;;;410.50;2227.20;;;;;;5519883;25;20458;-71
2024/04/15 04:53:41;;;;;;;7.18;4.18;;;410.50;2278.40;;;;;;5520845;25;20009;-72
2024/04/15 04:56:11;;;;;;;8.23;5.18;;;410.50;2278.40;;;;;;5519911;26;20005;-70
2024/04/15 04:58:38;;;;;;;11.45;5.00;;;435.20;2252.80;;;;;;5520188;26;20013;-71
2024/04/15 05:01:14;;;;;;;8.85;4.80;;;435.30;2227.20;;;;;;5520037;26;20343;-72
2024/04/15 05:03:43;;;;;;;8.18;4.55;;;461.40;2150.40;;;;;;5519748;26;20002;-71
2024/04/15 05:06:10;;;;;;;6.70;5.40;;;563.60;1894.40;;;;;;5519576;26;20401;-70
2024/04/15 05:08:37;;;;;;;6.90;5.70;;;615.00;1689.60;;;;;;5519269;25;19997;-73
2024/04/15 05:11:03;;;;;;;7.95;5.47;;;666.10;1587.20;;;;;;5519030;25;20423;-70
2024/04/15 05:13:29;;;;;;;7.13;5.75;;;692.10;1484.80;;;;;;5520133;25;20045;-71
2024/04/15 05:16:11;;;;;;;8.20;6.13;;;717.40;1433.60;;;;;;5518938;26;20034;-72
2024/04/15 05:18:39;;;;;;;9.43;6.10;;;743.00;1382.40;;;;;;5519331;25;20380;-71
2024/04/15 05:21:16;;;;;;;9.48;6.13;;;793.80;1331.20;;;;;;5517877;26;20006;-71
2024/04/15 05:23:42;;;;;;;9.82;6.70;;;819.60;1254.40;;;;;;5518961;25;20069;-72
2024/04/15 05:26:08;;;;;;;7.93;6.90;;;820.10;1254.40;;;;;;5518875;26;20443;-71
2024/04/15 05:28:34;;;;;;;14.45;8.75;;;819.90;1280.00;;;;;;5518187;25;19997;-79
2024/04/15 05:31:00;;;;;;;16.52;9.93;;;820.10;1305.60;;;;;;5519468;25;19997;-71
2024/04/15 05:33:27;;;;;;;44.67;13.48;;;820.00;1305.60;;;;;;5517436;25;20008;-74
2024/04/15 05:35:53;;;;;;;11.70;8.73;;;870.70;1254.40;;;;;;5519298;25;20040;-74
2024/04/15 05:38:20;;;;;;;11.07;8.98;;;870.70;1254.40;;;;;;5518193;26;20400;-74
2024/04/15 05:40:46;;;;;;;11.13;9.68;;;870.90;1228.80;;;;;;5518718;26;20002;-73
2024/04/15 05:43:12;;;;;;;12.98;9.68;;;871.20;1203.20;;;;;;5522059;25;20008;-75
2024/04/15 05:45:40;;;;;;;10.20;9.30;;;896.80;1152.00;;;;;;5520254;25;20948;-74
2024/04/15 05:48:06;;;;;;;27.17;11.77;;;921.60;1152.00;;;;;;5517935;26;20340;-75
2024/04/15 05:50:32;;;;;;;12.60;8.45;;;922.00;1126.40;;;;;;5521833;25;19997;-74
2024/04/15 05:52:58;;;;;;;10.23;8.45;;;947.30;1100.80;;;;;;5521737;26;19993;-74
2024/04/15 05:55:24;;;;;;;8.80;8.02;;;947.20;1075.20;;;;;;5521656;26;19990;-74
2024/04/15 05:57:50;;;;;;;13.30;10.50;;;973.00;1075.20;;;;;;5522232;26;20334;-74
2024/04/15 06:00:18;;;;;;;13.05;11.85;;;947.70;1100.80;;;;;;5522061;25;19989;-74
2024/04/15 06:02:44;;;;;;;9.70;8.75;;;947.80;1100.80;;;;;;5501308;26;19994;-74
2024/04/15 06:05:10;;;;;;;9.13;8.15;;;947.20;1126.40;;;;;;5517144;25;20030;-74
2024/04/15 06:07:36;;;;;;;9.02;8.10;;;972.80;1100.80;;;;;;5521717;26;20073;-74
2024/04/15 06:10:01;;;;;;;9.80;7.45;;;973.10;1075.20;;;;;;5522181;26;19993;-74
2024/04/15 06:12:29;;;;;;;9.57;8.68;;;973.70;1024.00;;;;;;5521643;25;20004;-74
2024/04/15 06:14:55;;;;;;;9.15;8.23;;;1024.50;998.40;;;;;;5522244;25;19997;-74
2024/04/15 06:17:22;;;;;;;8.50;7.85;;;1049.90;972.80;;;;;;5521685;26;20008;-74
2024/04/15 06:19:48;;;;;;;10.38;8.32;;;1075.30;947.20;;;;;;5521971;26;20066;-74
2024/04/15 06:22:15;;;;;;;10.32;9.52;;;1100.80;947.20;;;;;;5521791;25;19993;-73
2024/04/15 06:24:40;;;;;;;10.23;9.25;;;1100.90;947.20;;;;;;5522269;26;19993;-74
2024/04/15 06:27:06;;;;;;;14.35;11.52;;;1101.20;947.20;;;;;;5521576;26;20002;-75
2024/04/15 06:29:32;;;;;;;16.42;12.68;;;1076.10;972.80;;;;;;5522047;25;19997;-74
2024/04/15 06:31:58;;;;;;;15.93;12.30;;;1075.40;972.80;;;;;;5521340;26;19995;-74
2024/04/15 06:34:26;;;;;;;17.88;12.77;;;1075.30;998.40;;;;;;5522089;25;19994;-74
2024/04/15 06:36:53;;;;;;;18.92;14.65;;;1075.40;972.80;;;;;;5521558;25;20331;-74
2024/04/15 06:39:18;;;;;;;15.85;14.25;;;1101.10;998.40;;;;;;5522121;25;20343;-75
2024/04/15 06:41:44;;;;;;;14.80;12.25;;;1101.50;972.80;;;;;;5520961;25;19993;-75
2024/04/15 06:44:12;;;;;;;15.93;14.25;;;1101.60;972.80;;;;;;5521402;25;19994;-74
2024/04/15 06:46:38;;;;;;;17.33;15.05;;;1126.60;998.40;;;;;;5521410;25;20335;-75
2024/04/15 06:49:04;;;;;;;15.35;13.95;;;1101.30;972.80;;;;;;5521542;25;19993;-75
2024/04/15 06:51:30;;;;;;;15.20;13.23;;;1126.50;972.80;;;;;;5521732;25;19993;-75
2024/04/15 06:53:55;;;;;;;16.85;15.18;;;1127.30;947.20;;;;;;5520996;25;19994;-75
2024/04/15 06:56:21;;;;;;;16.17;14.50;;;1152.40;921.60;;;;;;5519348;25;20435;-75
2024/04/15 06:58:47;;;;;;;16.63;14.98;;;1152.60;896.00;;;;;;5498842;25;20436;-76
2024/04/15 07:01:13;;;;;;;13.60;12.50;;;1178.20;870.40;;;;;;5520751;25;20008;-75
2024/04/15 07:03:39;;;;;;;16.45;14.60;;;1203.30;870.40;;;;;;5522403;25;20009;-74
2024/04/15 07:06:05;;;;;;;15.80;13.95;;;1203.30;870.40;;;;;;5521324;25;20012;-75
2024/04/15 07:08:31;;;;;;;15.55;14.05;;;1178.50;844.80;;;;;;5521911;25;20012;-75
2024/04/15 07:10:57;;;;;;;15.90;14.48;;;1203.40;870.40;;;;;;5521075;25;20009;-75
2024/04/15 07:13:23;;;;;;;14.68;13.32;;;1203.30;844.80;;;;;;5522022;25;19994;-74
2024/04/15 07:15:49;;;;;;;14.25;13.05;;;1178.00;844.80;;;;;;5520947;25;20400;-73
2024/04/15 07:18:15;;;;;;;13.40;12.30;;;1203.40;870.40;;;;;;5521397;26;19993;-75
2024/04/15 07:20:41;;;;;;;15.27;13.77;;;1203.80;844.80;;;;;;5521457;25;19994;-73
2024/04/15 07:23:06;;;;;;;20.80;15.45;;;1229.30;819.20;;;;;;5521751;25;20332;-73
2024/04/15 07:25:32;;;;;;;16.77;15.02;;;1229.50;819.20;;;;;;5521192;26;19997;-72
2024/04/15 07:27:58;;;;;;;24.83;15.90;;;1229.30;819.20;;;;;;5521127;25;20392;-73
2024/04/15 07:30:24;;;;;;;18.38;15.35;;;1229.40;819.20;;;;;;5520581;26;20069;-73
2024/04/15 07:32:51;;;;;;;25.92;15.98;;;1254.40;844.80;;;;;;5519723;25;20069;-74
2024/04/15 07:35:18;;;;;;;25.73;15.60;;;1254.40;819.20;;;;;;5521404;25;20012;-73
2024/04/15 07:37:45;;;;;;;26.00;15.63;;;1229.20;819.20;;;;;;5521653;25;20480;-74
2024/04/15 07:40:11;;;;;;;27.13;15.25;;;1229.30;844.80;;;;;;5521402;25;20008;-74
2024/04/15 07:42:39;;;;;;;29.75;16.80;;;1229.40;819.20;;;;;;5520901;25;20038;-74
2024/04/15 07:45:06;;;;;;;30.65;15.68;;;1229.40;819.20;;;;;;5520642;25;20454;-74
2024/04/15 07:47:32;;;;;;;31.90;16.40;;;1229.30;819.20;;;;;;5521129;25;20033;-74
2024/04/15 07:49:58;;;;;;;22.70;15.02;;;1254.40;844.80;;;;;;5520077;25;19997;-74
2024/04/15 07:52:23;;;;;;;24.27;14.85;;;1254.80;819.20;;;;;;5521128;26;19993;-74
2024/04/15 07:54:50;;;;;;;18.98;15.02;;;1255.00;819.20;;;;;;5520623;25;20123;-74
2024/04/15 07:57:16;;;;;;;23.70;15.93;;;1255.00;793.60;;;;;;5493950;26;20389;-74
2024/04/15 07:59:42;;;;;;;21.00;16.00;;;1255.00;768.00;;;;;;5521349;25;20004;-74
2024/04/15 08:02:09;;;;;;;25.45;17.63;;;1255.30;768.00;;;;;;5521983;25;20005;-74
2024/04/15 08:04:35;;;;;;;22.52;17.58;;;1280.20;768.00;;;;;;5520584;25;20460;-75
2024/04/15 08:07:01;;;;;;;30.73;19.15;;;1280.40;768.00;;;;;;5521436;25;20037;-75
2024/04/15 08:09:27;;;;;;;25.90;17.63;;;1280.00;768.00;;;;;;5520415;26;19993;-75
2024/04/15 08:11:53;;;;;;;26.20;17.25;;;1280.50;742.40;;;;;;5521018;25;20019;-74
2024/04/15 08:14:22;;;;;;;24.15;18.63;;;1280.70;742.40;;;;;;5520439;26;19997;-74
2024/04/15 08:16:48;;;;;;;24.45;16.25;;;1280.20;768.00;;;;;;5520411;25;20012;-74
2024/04/15 08:19:14;;;;;;;20.88;15.73;;;1280.90;742.40;;;;;;5519809;25;19997;-73
2024/04/15 08:21:40;;;;;;;24.80;17.40;;;1280.20;716.80;;;;;;5520984;25;20012;-74
2024/04/15 08:24:06;;;;;;;18.70;14.77;;;1280.40;716.80;;;;;;5519455;25;20008;-74
2024/04/15 08:26:32;;;;;;;14.07;12.68;;;1254.80;742.40;;;;;;5495598;25;20006;-74
2024/04/15 08:29:00;;;;;;;16.38;11.65;;;1254.60;742.40;;;;;;5519763;25;19998;-73
2024/04/15 08:31:26;;;;;;;14.65;13.13;;;1229.70;716.80;;;;;;5518866;25;20001;-73
2024/04/15 08:33:52;;;;;;;14.45;12.85;;;1228.90;768.00;;;;;;5520238;25;20057;-73
2024/04/15 08:36:18;;;;;;;48.67;20.02;;;1204.10;716.80;;;;;;5519985;25;20396;-73
2024/04/15 08:38:45;;;;;;;15.55;12.38;;;1203.30;793.60;;;;;;5519906;25;19997;-73
2024/04/15 08:41:25;;;;;;;12.43;10.23;;;1152.70;768.00;;;;;;5519646;25;20003;-75
2024/04/15 08:43:58;;;;;;;13.20;10.20;;;1101.10;793.60;;;;;;5520573;25;19997;-74
2024/04/15 08:46:26;;;;;;;12.93;9.10;;;1050.30;844.80;;;;;;5519113;25;20001;-75
2024/04/15 08:48:52;;;;;;;10.38;7.53;;;999.30;870.40;;;;;;5520240;25;20069;-73
2024/04/15 08:51:19;;;;;;;10.30;7.07;;;973.50;870.40;;;;;;5519447;26;20528;-74
2024/04/15 08:53:46;;;;;;;13.00;8.25;;;972.80;921.60;;;;;;5520086;26;20077;-73
2024/04/15 08:56:13;;;;;;;7.28;6.22;;;947.70;921.60;;;;;;5519664;26;20029;-75
2024/04/15 08:58:40;;;;;;;9.82;6.22;;;922.40;947.20;;;;;;5520416;25;20025;-74
2024/04/15 09:01:08;;;;;;;9.48;5.93;;;921.70;921.60;;;;;;5518739;25;20012;-74
2024/04/15 09:03:34;;;;;;;9.13;4.88;;;921.70;896.00;;;;;;5519851;26;20070;-74
2024/04/15 09:06:00;;;;;;;6.50;5.07;;;896.10;870.40;;;;;;5519545;25;20009;-75
2024/04/15 09:08:26;;;;;;;7.78;4.82;;;871.30;896.00;;;;;;5519381;26;19997;-74
2024/04/15 09:10:53;;;;;;;6.75;4.32;;;871.10;896.00;;;;;;5519584;25;20013;-74
2024/04/15 09:13:18;;;;;;;4.65;4.25;;;870.90;870.40;;;;;;5520050;26;19997;-74
2024/04/15 09:15:48;;;;;;;10.25;4.03;;;870.70;870.40;;;;;;5517874;26;20001;-75
2024/04/15 09:18:14;;;;;;;6.80;3.90;;;870.50;896.00;;;;;;5519371;25;20005;-74
2024/04/15 09:20:44;;;;;;;4.90;3.97;;;845.40;844.80;;;;;;5516252;25;19998;-75
2024/04/15 09:23:10;;;;;;;4.35;3.67;;;845.40;870.40;;;;;;5519171;26;20030;-75
2024/04/15 09:25:36;;;;;;;6.60;3.60;;;845.20;896.00;;;;;;5518651;26;19997;-74
2024/04/15 09:28:04;;;;;;;6.35;3.90;;;845.50;870.40;;;;;;5519465;25;19994;-74
2024/04/15 09:30:31;;;;;;;8.75;4.10;;;845.40;870.40;;;;;;5504052;25;19998;-74
2024/04/15 09:32:58;;;;;;;4.80;3.80;;;845.40;870.40;;;;;;5508872;26;20000;-74
2024/04/15 09:35:27;;;;;;;4.93;3.28;;;845.40;870.40;;;;;;5517790;25;20009;-75
2024/04/15 09:37:54;;;;;;;6.25;4.00;;;845.20;870.40;;;;;;5518844;25;19997;-74
2024/04/15 09:40:25;;;;;;;6.15;3.40;;;845.10;870.40;;;;;;5518095;26;20446;-73
2024/04/15 09:42:56;;;;;;;5.93;3.20;;;845.10;896.00;;;;;;5519658;26;20012;-74
2024/04/15 09:45:22;;;;;;;4.55;3.17;;;844.80;870.40;;;;;;5518486;26;20002;-74
2024/04/15 09:47:50;;;;;;;4.85;3.42;;;844.80;844.80;;;;;;5518344;25;20005;-74
2024/04/15 09:50:21;;;;;;;6.18;4.05;;;820.00;870.40;;;;;;5518944;26;20006;-74
2024/04/15 09:52:54;;;;;;;4.85;3.35;;;844.80;870.40;;;;;;5511047;25;19994;-75
2024/04/15 09:55:31;;;;;;;9.10;4.30;;;820.10;896.00;;;;;;5504633;26;19997;-75
2024/04/15 09:57:58;;;;;;;4.78;3.20;;;820.00;870.40;;;;;;5494745;25;20008;-74
2024/04/15 10:00:25;;;;;;;4.40;3.20;;;819.80;844.80;;;;;;5517962;26;20073;-74
2024/04/15 10:03:08;;;;;;;7.72;3.78;;;819.60;844.80;;;;;;5518432;25;20009;-74
2024/04/15 10:05:42;;;;;;;4.72;3.53;;;819.60;844.80;;;;;;5518823;25;20324;-75
2024/04/15 10:08:08;;;;;;;7.25;3.05;;;819.70;870.40;;;;;;5518303;25;20001;-75
2024/04/15 10:10:36;;;;;;;6.30;3.95;;;819.70;844.80;;;;;;5518338;26;20011;-74
2024/04/15 10:13:07;;;;;;;4.93;3.40;;;819.60;870.40;;;;;;5517954;25;20456;-74
2024/04/15 10:15:33;;;;;;;5.15;3.90;;;819.60;870.40;;;;;;5518299;26;20143;-74
2024/04/15 10:18:04;;;;;;;7.13;3.47;;;819.60;896.00;;;;;;5517743;25;20009;-74
2024/04/15 10:20:38;;;;;;;6.20;3.40;;;819.60;870.40;;;;;;5518431;25;20011;-74
2024/04/15 10:23:08;;;;;;;4.95;3.25;;;819.40;921.60;;;;;;5517078;26;20379;-75
2024/04/15 10:25:37;;;;;;;7.28;3.80;;;819.30;921.60;;;;;;5518628;25;20005;-75
2024/04/15 10:28:07;;;;;;;4.70;3.33;;;819.30;921.60;;;;;;5518802;26;20998;-74
2024/04/15 10:30:36;;;;;;;4.78;3.70;;;819.30;870.40;;;;;;5522659;26;20586;-74
2024/04/15 10:33:07;;;;;;;5.45;3.67;;;819.60;870.40;;;;;;5520761;25;19998;-74
2024/04/15 10:35:35;;;;;;;6.85;3.95;;;819.60;896.00;;;;;;5522037;26;20009;-74
2024/04/15 10:38:04;;;;;;;5.68;3.40;;;819.70;947.20;;;;;;5521449;26;19994;-74
2024/04/15 10:40:33;;;;;;;7.25;4.50;;;819.60;972.80;;;;;;5521610;25;20037;-74
2024/04/15 10:42:59;;;;;;;6.13;3.85;;;819.30;947.20;;;;;;5521332;26;20009;-73
2024/04/15 10:45:26;;;;;;;6.00;3.65;;;819.30;947.20;;;;;;5521284;25;20454;-74
2024/04/15 10:47:53;;;;;;;6.90;4.38;;;819.40;947.20;;;;;;5521202;26;20015;-74
2024/04/15 10:50:19;;;;;;;5.45;3.67;;;819.40;947.20;;;;;;5521243;26;20014;-73
2024/04/15 10:52:45;;;;;;;3.83;3.10;;;819.20;947.20;;;;;;5519875;26;19993;-74
2024/04/15 10:55:10;;;;;;;7.05;3.50;;;794.50;947.20;;;;;;5521529;26;19993;-74
2024/04/15 10:57:40;;;;;;;5.55;3.53;;;794.50;972.80;;;;;;5520393;26;19998;-74
2024/04/15 11:00:18;;;;;;;7.18;4.13;;;819.30;972.80;;;;;;5521544;26;20069;-74
2024/04/15 11:02:50;;;;;;;5.03;4.18;;;794.50;947.20;;;;;;5520424;26;20005;-74
2024/04/15 11:05:17;;;;;;;4.82;3.58;;;819.20;998.40;;;;;;5522164;25;20025;-74
2024/04/15 11:07:46;;;;;;;7.78;4.30;;;794.40;972.80;;;;;;5521009;25;20001;-73
2024/04/15 11:10:13;;;;;;;4.82;3.90;;;794.50;972.80;;;;;;5521504;25;19998;-74
2024/04/15 11:12:40;;;;;;;10.10;4.72;;;819.30;998.40;;;;;;5521225;25;20347;-74
2024/04/15 11:15:10;;;;;;;6.00;4.22;;;819.30;998.40;;;;;;5519602;26;20008;-78
2024/04/15 11:17:45;;;;;;;5.45;4.40;;;819.40;972.80;;;;;;5519662;25;20021;-75
2024/04/15 11:20:12;;;;;;;4.32;3.60;;;819.30;972.80;;;;;;5520504;26;20001;-74
2024/04/15 11:22:38;;;;;;;8.90;4.18;;;819.20;972.80;;;;;;5521618;26;20001;-74
2024/04/15 11:25:04;;;;;;;5.93;4.35;;;819.30;1024.00;;;;;;5520042;26;20412;-76
2024/04/15 11:27:33;;;;;;;5.97;4.03;;;819.30;972.80;;;;;;5521279;26;20001;-75
2024/04/15 11:30:02;;;;;;;5.45;3.85;;;819.40;972.80;;;;;;5519323;26;20080;-74
2024/04/15 11:32:29;;;;;;;5.72;4.07;;;819.50;998.40;;;;;;5520720;26;20002;-74
2024/04/15 11:34:55;;;;;;;5.93;4.22;;;794.50;972.80;;;;;;5519841;25;20008;-75
2024/04/15 11:37:21;;;;;;;7.07;4.50;;;819.50;998.40;;;;;;5521264;26;20009;-74
2024/04/15 11:39:47;;;;;;;5.07;4.00;;;819.50;1024.00;;;;;;5518750;25;20007;-75
2024/04/15 11:42:16;;;;;;;7.53;3.88;;;819.60;1024.00;;;;;;5521069;26;20340;-74
2024/04/15 11:44:42;;;;;;;5.57;4.10;;;819.60;998.40;;;;;;5519244;26;19997;-75
2024/04/15 11:47:15;;;;;;;11.40;4.90;;;819.60;998.40;;;;;;5520486;26;20016;-74
2024/04/15 11:49:42;;;;;;;6.63;4.00;;;819.50;998.40;;;;;;5519815;26;20021;-75
2024/04/15 11:52:08;;;;;;;7.03;4.45;;;819.60;1049.60;;;;;;5522466;26;20001;-73
2024/04/15 11:54:36;;;;;;;5.20;4.13;;;819.50;1024.00;;;;;;5534668;26;20002;-76
2024/04/15 11:57:02;;;;;;;6.57;4.40;;;819.60;972.80;;;;;;5535291;25;20411;-75
2024/04/15 11:59:28;;;;;;;9.27;4.43;;;819.60;1049.60;;;;;;5529976;25;20012;-75
2024/04/15 12:01:57;;;;;;;6.47;4.65;;;819.70;998.40;;;;;;5535252;26;19998;-75
2024/04/15 12:04:24;;;;;;;8.10;4.55;;;819.70;998.40;;;;;;5529364;25;20013;-75
2024/04/15 12:06:53;;;;;;;5.20;4.60;;;819.60;998.40;;;;;;5521365;26;20074;-74
2024/04/15 12:09:22;;;;;;;11.05;5.15;;;819.50;998.40;;;;;;5513115;25;20001;-75
2024/04/15 12:11:48;;;;;;;5.30;4.43;;;819.60;972.80;;;;;;5503490;26;20016;-75
2024/04/15 12:14:14;;;;;;;5.95;4.50;;;819.80;998.40;;;;;;5499425;25;20679;-77